Time;durP1;ratioP1;P1;durP2;ratioP2;P2;SDS_P1;SDS_P2;PMS_P1;PMS_P2;Temp;Humidity;BMP_temperature;BMP_pressure;BME280_temperature;BME280_humidity;BME280_pressure;Samples;Min_cycle;Max_cycle;Signal;HPM_P1;HPM_P2
2023/04/08 00:00:15;;;;;;;14.60;10.53;;;8.10;99.90;;;;;;5054748;28;20187;-46
2023/04/08 00:02:42;;;;;;;20.40;12.00;;;8.10;99.90;;;;;;5054771;28;20291;-46
2023/04/08 00:05:07;;;;;;;17.80;11.80;;;8.10;99.90;;;;;;5054469;28;20181;-46
2023/04/08 00:07:33;;;;;;;21.00;11.93;;;8.10;99.90;;;;;;5054610;28;20240;-45
2023/04/08 00:09:59;;;;;;;19.73;12.27;;;8.10;99.90;;;;;;5036620;28;20221;-47
2023/04/08 00:12:24;;;;;;;26.40;11.97;;;8.10;99.90;;;;;;5054364;28;20200;-44
2023/04/08 00:14:50;;;;;;;21.50;12.93;;;8.10;99.90;;;;;;5054629;28;20208;-48
2023/04/08 00:17:15;;;;;;;19.43;13.10;;;8.10;99.90;;;;;;5054397;28;20638;-45
2023/04/08 00:19:41;;;;;;;19.03;12.30;;;8.10;99.90;;;;;;5054501;28;20182;-47
2023/04/08 00:22:07;;;;;;;19.97;12.60;;;8.10;99.90;;;;;;5054210;28;20211;-46
2023/04/08 00:24:33;;;;;;;19.90;13.97;;;8.10;99.90;;;;;;5036098;28;20637;-46
2023/04/08 00:26:58;;;;;;;21.27;12.50;;;8.10;99.90;;;;;;5053966;28;20177;-46
2023/04/08 00:29:24;;;;;;;18.77;12.90;;;8.10;99.90;;;;;;5053970;28;20389;-46
2023/04/08 00:31:50;;;;;;;25.13;12.63;;;8.00;99.90;;;;;;5054259;28;20188;-46
2023/04/08 00:34:16;;;;;;;20.90;12.53;;;8.00;99.90;;;;;;5054143;28;20188;-48
2023/04/08 00:36:41;;;;;;;20.77;12.90;;;8.10;99.90;;;;;;5054119;28;20651;-46
2023/04/08 00:39:07;;;;;;;18.50;12.83;;;8.00;99.90;;;;;;5054612;28;20220;-48
2023/04/08 00:41:34;;;;;;;18.80;12.67;;;8.10;99.90;;;;;;5055530;28;20200;-48
2023/04/08 00:44:00;;;;;;;23.73;12.43;;;8.10;99.90;;;;;;5054061;28;20234;-47
2023/04/08 00:46:26;;;;;;;23.17;13.43;;;8.10;99.90;;;;;;5054596;28;20188;-46
2023/04/08 00:48:53;;;;;;;25.33;13.37;;;8.00;99.90;;;;;;5054738;28;20195;-46
2023/04/08 00:51:19;;;;;;;20.27;12.47;;;8.10;99.90;;;;;;5053955;28;20217;-46
2023/04/08 00:53:45;;;;;;;23.80;12.40;;;8.10;99.90;;;;;;5053778;28;20190;-47
2023/04/08 00:56:10;;;;;;;22.27;12.17;;;8.10;99.90;;;;;;5054579;28;20255;-48
2023/04/08 00:58:38;;;;;;;20.23;11.47;;;8.10;99.90;;;;;;5055188;28;20204;-45
2023/04/08 01:01:15;;;;;;;21.63;13.17;;;8.10;99.90;;;;;;5055527;28;20236;-47
2023/04/08 01:04:23;;;;;;;22.07;12.63;;;8.10;99.90;;;;;;5056195;28;20200;-50
2023/04/08 01:06:55;;;;;;;26.87;12.87;;;8.10;99.90;;;;;;5021217;28;20215;-50
2023/04/08 01:09:24;;;;;;;22.33;12.77;;;8.00;99.90;;;;;;5055172;28;20163;-49
2023/04/08 01:11:51;;;;;;;21.53;12.43;;;8.10;99.90;;;;;;5056813;28;20218;-50
2023/04/08 01:14:20;;;;;;;23.90;12.77;;;8.10;99.90;;;;;;5054061;28;20227;-49
2023/04/08 01:16:46;;;;;;;24.53;12.83;;;8.00;99.90;;;;;;5053988;28;20245;-50
2023/04/08 01:19:23;;;;;;;27.83;13.57;;;8.00;99.90;;;;;;5053826;28;20212;-50
2023/04/08 01:21:49;;;;;;;27.03;14.00;;;8.00;99.90;;;;;;5053838;28;20188;-50
2023/04/08 01:24:32;;;;;;;26.67;14.30;;;8.00;99.90;;;;;;5053751;28;20185;-49
2023/04/08 01:27:00;;;;;;;24.03;14.40;;;8.00;99.90;;;;;;5053772;28;20223;-50
2023/04/08 01:29:28;;;;;;;20.57;12.67;;;8.00;99.90;;;;;;5053880;28;20169;-49
2023/04/08 01:31:55;;;;;;;22.73;12.97;;;8.00;99.90;;;;;;5053684;28;20200;-49
2023/04/08 01:34:22;;;;;;;21.53;13.67;;;8.00;99.90;;;;;;5053701;28;20564;-49
2023/04/08 01:36:49;;;;;;;23.00;14.23;;;8.00;99.90;;;;;;5053686;28;20188;-49
2023/04/08 01:39:17;;;;;;;23.53;13.33;;;8.00;99.90;;;;;;5055487;28;20299;-50
2023/04/08 01:41:44;;;;;;;19.37;13.47;;;8.00;99.90;;;;;;5057924;28;20191;-50
2023/04/08 01:44:10;;;;;;;21.80;13.03;;;8.00;99.90;;;;;;5057586;28;20711;-50
2023/04/08 01:46:37;;;;;;;24.30;15.00;;;8.00;99.90;;;;;;5057392;28;20173;-50
2023/04/08 01:49:05;;;;;;;21.07;14.03;;;8.00;99.90;;;;;;5058196;28;20652;-49
2023/04/08 01:51:31;;;;;;;26.60;14.00;;;8.00;99.90;;;;;;5057273;28;20256;-48
2023/04/08 01:53:57;;;;;;;24.70;13.63;;;8.00;99.90;;;;;;5057256;28;20230;-49
2023/04/08 01:56:27;;;;;;;22.37;13.73;;;8.00;99.90;;;;;;5057393;28;20653;-47
2023/04/08 01:58:55;;;;;;;26.83;12.90;;;8.00;99.90;;;;;;5057891;28;20222;-49
2023/04/08 02:01:25;;;;;;;22.87;14.07;;;8.00;99.90;;;;;;5057713;28;20194;-49
2023/04/08 02:03:56;;;;;;;25.17;14.10;;;8.00;99.90;;;;;;5057318;28;20184;-50
2023/04/08 02:06:22;;;;;;;23.00;14.33;;;8.00;99.90;;;;;;5039230;28;20173;-49
2023/04/08 02:08:48;;;;;;;22.30;14.20;;;8.00;99.90;;;;;;5057056;28;20184;-50
2023/04/08 02:11:14;;;;;;;29.77;14.33;;;8.00;99.90;;;;;;5057270;28;20286;-49
2023/04/08 02:13:40;;;;;;;21.80;13.53;;;8.00;99.90;;;;;;5056833;28;20227;-48
2023/04/08 02:16:15;;;;;;;28.37;14.47;;;8.00;99.90;;;;;;5056982;28;20178;-49
2023/04/08 02:18:44;;;;;;;22.50;14.60;;;8.00;99.90;;;;;;5056945;28;20218;-47
2023/04/08 02:21:15;;;;;;;26.40;15.50;;;8.00;99.90;;;;;;5056700;28;20716;-49
2023/04/08 02:23:45;;;;;;;21.17;15.23;;;8.00;99.90;;;;;;5057053;28;20185;-48
2023/04/08 02:26:15;;;;;;;25.40;14.37;;;7.90;99.90;;;;;;5056869;28;20169;-49
2023/04/08 02:28:41;;;;;;;25.17;14.57;;;8.00;99.90;;;;;;5057013;28;20178;-51
2023/04/08 02:31:14;;;;;;;28.23;14.83;;;8.00;99.90;;;;;;5056913;28;20200;-48
2023/04/08 02:33:41;;;;;;;23.47;14.53;;;8.00;99.90;;;;;;5056744;28;20255;-48
2023/04/08 02:36:08;;;;;;;27.43;14.97;;;8.00;99.90;;;;;;5056948;28;20176;-50
2023/04/08 02:38:34;;;;;;;26.23;16.17;;;7.90;99.90;;;;;;5056728;28;20548;-48
2023/04/08 02:40:59;;;;;;;23.93;14.93;;;7.90;99.90;;;;;;5056805;28;20179;-50
2023/04/08 02:43:30;;;;;;;25.07;15.10;;;7.90;99.90;;;;;;5056544;28;20174;-50
2023/04/08 02:45:56;;;;;;;28.43;15.17;;;7.90;99.90;;;;;;5056599;28;20521;-50
2023/04/08 02:48:22;;;;;;;29.90;16.27;;;7.90;99.90;;;;;;5056702;28;20188;-50
2023/04/08 02:50:47;;;;;;;24.23;14.53;;;7.90;99.90;;;;;;5055998;28;20674;-50
2023/04/08 02:53:13;;;;;;;23.27;15.10;;;7.90;99.90;;;;;;5056493;28;20695;-51
2023/04/08 02:55:39;;;;;;;27.90;15.07;;;7.90;99.90;;;;;;5056441;28;20180;-50
2023/04/08 02:58:04;;;;;;;24.17;14.50;;;7.90;99.90;;;;;;5056539;28;20236;-49
2023/04/08 03:00:30;;;;;;;22.17;15.10;;;7.90;99.90;;;;;;5056468;28;20638;-49
2023/04/08 03:02:55;;;;;;;24.43;16.00;;;7.90;99.90;;;;;;5056898;28;20191;-50
2023/04/08 03:05:21;;;;;;;23.30;15.97;;;7.90;99.90;;;;;;5056189;28;20511;-50
2023/04/08 03:07:47;;;;;;;20.20;13.73;;;7.90;99.90;;;;;;5056180;28;20200;-50
2023/04/08 03:10:13;;;;;;;25.37;16.90;;;7.90;99.90;;;;;;5055934;28;20706;-50
2023/04/08 03:12:38;;;;;;;24.13;15.43;;;7.90;99.90;;;;;;5038303;28;20208;-51
2023/04/08 03:15:05;;;;;;;29.67;16.33;;;7.90;99.90;;;;;;5055893;28;20223;-51
2023/04/08 03:17:33;;;;;;;26.37;15.57;;;7.90;99.90;;;;;;5055740;28;20201;-50
2023/04/08 03:19:59;;;;;;;26.50;16.43;;;7.90;99.90;;;;;;5055857;28;20180;-49
2023/04/08 03:22:25;;;;;;;33.20;17.33;;;7.90;99.90;;;;;;5055946;28;20203;-48
2023/04/08 03:24:50;;;;;;;23.93;15.97;;;7.90;99.90;;;;;;5056380;28;20187;-50
2023/04/08 03:27:16;;;;;;;25.43;16.17;;;7.90;99.90;;;;;;5056115;28;20177;-50
2023/04/08 03:29:42;;;;;;;24.77;15.50;;;7.90;99.90;;;;;;5056907;28;20651;-51
2023/04/08 03:32:07;;;;;;;35.77;16.83;;;7.90;99.90;;;;;;5059279;28;20558;-48
2023/04/08 03:34:34;;;;;;;28.80;16.10;;;7.90;99.90;;;;;;5058109;28;20172;-45
2023/04/08 03:37:00;;;;;;;26.87;15.47;;;7.90;99.90;;;;;;5059170;28;20180;-48
2023/04/08 03:39:26;;;;;;;31.87;16.00;;;7.90;99.90;;;;;;5055984;28;20212;-48
2023/04/08 03:41:51;;;;;;;31.10;16.43;;;7.90;99.90;;;;;;5055552;28;20194;-45
2023/04/08 03:44:17;;;;;;;26.27;15.00;;;7.90;99.90;;;;;;5059823;28;20176;-45
2023/04/08 03:46:43;;;;;;;26.00;16.17;;;7.90;99.90;;;;;;5058912;28;20168;-50
2023/04/08 03:49:08;;;;;;;28.37;15.70;;;7.90;99.90;;;;;;5059270;28;20180;-47
2023/04/08 03:51:34;;;;;;;27.03;15.70;;;7.90;99.90;;;;;;5059972;28;20279;-46
2023/04/08 03:53:59;;;;;;;26.17;15.63;;;7.90;99.90;;;;;;5059393;28;20182;-46
2023/04/08 03:56:25;;;;;;;31.10;15.17;;;7.90;99.90;;;;;;5058501;28;20181;-50
2023/04/08 03:58:51;;;;;;;29.70;15.50;;;7.90;99.90;;;;;;5054993;28;20212;-49
2023/04/08 04:01:16;;;;;;;27.00;14.87;;;7.90;99.90;;;;;;5054215;28;20680;-49
2023/04/08 04:03:42;;;;;;;29.27;15.27;;;7.90;99.90;;;;;;5054869;28;20188;-50
2023/04/08 04:06:08;;;;;;;33.87;16.30;;;7.90;99.90;;;;;;5055501;28;20181;-49
2023/04/08 04:08:34;;;;;;;29.13;15.90;;;7.90;99.90;;;;;;5036772;28;20176;-49
2023/04/08 04:11:00;;;;;;;27.73;15.77;;;7.80;99.90;;;;;;5055632;28;20503;-49
2023/04/08 04:13:25;;;;;;;26.47;16.60;;;7.80;99.90;;;;;;5056303;28;20180;-49
2023/04/08 04:15:51;;;;;;;30.00;16.80;;;7.80;99.90;;;;;;5054733;28;20177;-49
2023/04/08 04:18:17;;;;;;;34.93;16.47;;;7.90;99.90;;;;;;5055009;28;20318;-49
2023/04/08 04:20:42;;;;;;;31.00;16.80;;;7.80;99.90;;;;;;5054515;28;20177;-50
2023/04/08 04:23:09;;;;;;;30.73;16.60;;;7.80;99.90;;;;;;5036952;28;20180;-49
2023/04/08 04:25:34;;;;;;;30.63;16.47;;;7.80;99.90;;;;;;5054730;28;20187;-49
2023/04/08 04:28:01;;;;;;;27.70;15.97;;;9.30;99.90;;;;;;5054833;28;20644;-48
2023/04/08 04:30:27;;;;;;;37.10;18.17;;;7.80;99.90;;;;;;5054712;28;20186;-48
2023/04/08 04:32:53;;;;;;;29.40;17.47;;;7.80;99.90;;;;;;5054949;28;20207;-48
2023/04/08 04:35:18;;;;;;;31.50;18.50;;;7.80;99.90;;;;;;5054382;28;20181;-50
2023/04/08 04:37:44;;;;;;;36.23;19.57;;;7.80;99.90;;;;;;5054137;28;20201;-49
2023/04/08 04:40:10;;;;;;;34.90;18.40;;;7.80;99.90;;;;;;5054172;28;20237;-48
2023/04/08 04:42:35;;;;;;;32.17;18.40;;;7.80;99.90;;;;;;5054445;28;20197;-50
2023/04/08 04:45:01;;;;;;;33.17;17.73;;;8.40;99.90;;;;;;5054243;28;20226;-49
2023/04/08 04:47:26;;;;;;;37.70;19.60;;;7.80;99.90;;;;;;5054565;28;20209;-49
2023/04/08 04:49:52;;;;;;;38.87;19.23;;;7.80;99.90;;;;;;5054248;28;20709;-50
2023/04/08 04:52:18;;;;;;;32.27;18.47;;;7.80;99.90;;;;;;5036007;28;20722;-49
2023/04/08 04:54:43;;;;;;;34.13;18.87;;;7.80;99.90;;;;;;5092398;22;20234;-46
2023/04/08 04:57:10;;;;;;;36.30;19.37;;;7.80;99.90;;;;;;5093785;28;20250;-44
2023/04/08 04:59:36;;;;;;;37.47;18.50;;;7.80;99.90;;;;;;5094047;28;20316;-44
2023/04/08 05:02:02;;;;;;;37.07;18.67;;;7.80;99.90;;;;;;5094043;28;20198;-47
2023/04/08 05:04:27;;;;;;;32.53;18.47;;;7.80;99.90;;;;;;5094304;28;20186;-45
2023/04/08 05:06:53;;;;;;;38.63;19.47;;;7.80;99.90;;;;;;5093992;28;20171;-45
2023/04/08 05:09:19;;;;;;;37.37;19.50;;;7.80;99.90;;;;;;5093984;28;20258;-43
2023/04/08 05:11:44;;;;;;;38.07;19.07;;;7.80;99.90;;;;;;5093974;28;20260;-46
2023/04/08 05:14:10;;;;;;;37.80;18.83;;;7.80;99.90;;;;;;5094182;28;20591;-43
2023/04/08 05:16:37;;;;;;;32.50;19.23;;;7.80;99.90;;;;;;5093822;28;20656;-45
2023/04/08 05:19:03;;;;;;;41.97;19.33;;;7.80;99.90;;;;;;5093915;28;20192;-45
2023/04/08 05:21:28;;;;;;;45.90;19.73;;;7.80;99.90;;;;;;5094066;28;20557;-45
2023/04/08 05:23:55;;;;;;;39.33;19.93;;;7.80;99.90;;;;;;5093958;28;20232;-45
2023/04/08 05:26:20;;;;;;;41.23;19.87;;;7.80;99.90;;;;;;5095917;28;20184;-43
2023/04/08 05:28:50;;;;;;;50.97;19.73;;;7.80;99.90;;;;;;5093449;28;20242;-46
2023/04/08 05:31:16;;;;;;;44.27;20.83;;;7.80;99.90;;;;;;5093702;28;20213;-45
2023/04/08 05:33:42;;;;;;;40.90;20.97;;;7.80;99.90;;;;;;5093575;28;20265;-45
2023/04/08 05:36:09;;;;;;;41.97;19.87;;;7.80;99.90;;;;;;5094194;28;20317;-44
2023/04/08 05:38:35;;;;;;;41.27;19.60;;;7.80;99.90;;;;;;5092061;28;20234;-46
2023/04/08 05:41:00;;;;;;;46.30;20.37;;;7.80;99.90;;;;;;5093325;28;20248;-46
2023/04/08 05:43:26;;;;;;;41.33;20.37;;;7.80;99.90;;;;;;5094141;28;20175;-45
2023/04/08 05:45:51;;;;;;;45.63;20.80;;;7.90;99.90;;;;;;5094251;28;20665;-45
2023/04/08 05:48:17;;;;;;;41.33;20.00;;;7.80;99.90;;;;;;5093954;28;20192;-43
2023/04/08 05:50:42;;;;;;;37.00;20.07;;;7.90;99.90;;;;;;5092164;28;20203;-46
2023/04/08 05:53:09;;;;;;;40.43;20.93;;;7.90;99.90;;;;;;5093219;28;20175;-45
2023/04/08 05:55:34;;;;;;;37.00;20.13;;;7.90;99.90;;;;;;5093411;28;20274;-44
2023/04/08 05:58:00;;;;;;;38.70;18.80;;;7.90;99.90;;;;;;5093374;28;20269;-44
2023/04/08 06:00:26;;;;;;;41.70;20.97;;;7.90;99.90;;;;;;5093463;28;20240;-45
2023/04/08 06:02:52;;;;;;;43.03;19.10;;;7.90;99.90;;;;;;5093636;28;20660;-44
2023/04/08 06:05:18;;;;;;;42.00;19.97;;;8.00;99.90;;;;;;5093358;28;20211;-45
2023/04/08 06:07:44;;;;;;;46.40;21.57;;;8.00;99.90;;;;;;5093374;28;20187;-43
2023/04/08 06:10:10;;;;;;;40.70;20.57;;;8.00;99.90;;;;;;5093334;28;20183;-46
2023/04/08 06:12:38;;;;;;;46.10;21.63;;;8.00;99.90;;;;;;5092979;28;20198;-43
2023/04/08 06:15:05;;;;;;;45.13;20.23;;;8.00;99.90;;;;;;5093125;28;20262;-44
2023/04/08 06:17:30;;;;;;;39.17;19.73;;;8.00;99.90;;;;;;5093794;28;20679;-43
2023/04/08 06:19:56;;;;;;;38.57;20.10;;;8.10;99.90;;;;;;5095125;28;20220;-42
2023/04/08 06:22:21;;;;;;;38.70;20.77;;;8.10;99.90;;;;;;5095740;28;20225;-45
2023/04/08 06:24:47;;;;;;;40.07;21.23;;;8.20;99.90;;;;;;5095999;28;20171;-44
2023/04/08 06:27:13;;;;;;;41.03;20.63;;;8.20;99.90;;;;;;5099293;28;20615;-46
2023/04/08 06:29:40;;;;;;;47.97;22.40;;;8.20;99.90;;;;;;5097438;28;20249;-47
2023/04/08 06:32:05;;;;;;;42.30;21.57;;;8.40;99.90;;;;;;5097123;28;20191;-45
2023/04/08 06:34:31;;;;;;;49.93;23.67;;;8.40;99.90;;;;;;5096784;28;20263;-44
2023/04/08 06:36:56;;;;;;;55.87;25.50;;;8.50;99.90;;;;;;5096728;28;20210;-44
2023/04/08 06:39:23;;;;;;;57.07;26.80;;;8.50;99.90;;;;;;5096300;28;20195;-44
2023/04/08 06:41:48;;;;;;;53.47;25.83;;;8.60;99.90;;;;;;5096450;28;20196;-44
2023/04/08 06:44:14;;;;;;;55.70;25.37;;;8.60;99.90;;;;;;5096590;28;20178;-44
2023/04/08 06:46:40;;;;;;;51.73;25.00;;;8.70;99.90;;;;;;5097098;28;20214;-47
2023/04/08 06:49:06;;;;;;;62.07;27.67;;;8.70;99.90;;;;;;5096498;28;20187;-43
2023/04/08 06:51:31;;;;;;;59.70;27.60;;;8.70;99.90;;;;;;5096689;28;20280;-43
2023/04/08 06:53:57;;;;;;;65.37;31.33;;;8.80;99.90;;;;;;5095992;28;20188;-46
2023/04/08 06:56:25;;;;;;;60.00;30.17;;;8.80;99.90;;;;;;5096888;28;20169;-44
2023/04/08 06:58:51;;;;;;;58.80;30.43;;;8.80;99.90;;;;;;5096221;28;20200;-45
2023/04/08 07:01:16;;;;;;;60.27;30.50;;;8.80;99.90;;;;;;5095878;28;20189;-47
2023/04/08 07:03:42;;;;;;;59.90;32.80;;;8.90;99.90;;;;;;5095960;28;20178;-44
2023/04/08 07:06:08;;;;;;;58.23;30.17;;;8.90;99.90;;;;;;5095753;28;20214;-45
2023/04/08 07:08:35;;;;;;;55.13;31.00;;;8.90;99.90;;;;;;5095946;28;20283;-43
2023/04/08 07:11:01;;;;;;;54.73;30.43;;;8.90;99.90;;;;;;5096043;28;20256;-42
2023/04/08 07:13:26;;;;;;;59.77;31.07;;;8.90;99.90;;;;;;5095965;28;20193;-45
2023/04/08 07:15:52;;;;;;;52.47;29.07;;;8.90;99.90;;;;;;5095634;28;20183;-43
2023/04/08 07:18:18;;;;;;;51.93;28.57;;;9.00;99.90;;;;;;5095509;28;20238;-46
2023/04/08 07:20:43;;;;;;;49.57;26.00;;;9.00;99.90;;;;;;5095503;28;20215;-46
2023/04/08 07:23:09;;;;;;;48.10;25.57;;;9.00;99.90;;;;;;5096319;28;20180;-43
2023/04/08 07:25:35;;;;;;;48.50;26.67;;;9.00;99.90;;;;;;5095512;28;20640;-42
2023/04/08 07:28:01;;;;;;;58.80;29.73;;;9.00;99.90;;;;;;5095736;28;20563;-44
2023/04/08 07:30:26;;;;;;;52.53;27.67;;;9.10;99.90;;;;;;5095624;28;20188;-43
2023/04/08 07:32:54;;;;;;;55.33;28.47;;;9.10;99.90;;;;;;5095523;28;20676;-45
2023/04/08 07:35:23;;;;;;;56.70;29.47;;;9.10;99.90;;;;;;5095372;28;20190;-44
2023/04/08 07:37:50;;;;;;;49.67;25.87;;;9.10;99.90;;;;;;5094523;28;20198;-45
2023/04/08 07:40:16;;;;;;;51.17;27.80;;;9.10;99.90;;;;;;5094899;28;20300;-44
2023/04/08 07:42:41;;;;;;;47.67;25.40;;;9.10;99.90;;;;;;5095202;28;20227;-44
2023/04/08 07:45:08;;;;;;;51.73;29.10;;;9.20;99.90;;;;;;5095318;28;20179;-44
2023/04/08 07:47:33;;;;;;;49.13;26.87;;;9.20;99.90;;;;;;5095172;28;20663;-42
2023/04/08 07:49:59;;;;;;;45.87;26.13;;;9.30;99.90;;;;;;5095849;28;20170;-43
2023/04/08 07:52:25;;;;;;;54.17;28.50;;;9.30;99.90;;;;;;5095035;28;20195;-45
2023/04/08 07:54:50;;;;;;;51.97;27.50;;;9.30;99.90;;;;;;5094722;28;20281;-46
2023/04/08 07:57:16;;;;;;;52.30;27.60;;;9.40;99.90;;;;;;5094829;28;20174;-43
2023/04/08 07:59:41;;;;;;;49.30;26.87;;;9.40;99.90;;;;;;5095110;28;20173;-46
2023/04/08 08:02:07;;;;;;;49.80;27.77;;;9.40;99.90;;;;;;5094851;28;20205;-46
2023/04/08 08:04:33;;;;;;;44.67;25.60;;;9.40;99.90;;;;;;5094954;28;20178;-43
2023/04/08 08:06:58;;;;;;;43.57;24.70;;;9.40;99.90;;;;;;5094646;28;20171;-43
2023/04/08 08:09:24;;;;;;;44.03;24.20;;;9.50;99.90;;;;;;5094892;28;20181;-45
2023/04/08 08:11:50;;;;;;;41.10;23.77;;;9.50;99.90;;;;;;5094709;28;20199;-45
2023/04/08 08:14:15;;;;;;;40.37;24.97;;;9.50;99.90;;;;;;5094490;28;20190;-44
2023/04/08 08:16:41;;;;;;;41.73;24.33;;;9.50;99.90;;;;;;5094490;28;20214;-43
2023/04/08 08:19:07;;;;;;;45.20;25.97;;;9.70;99.90;;;;;;5094640;28;20198;-45
2023/04/08 08:21:36;;;;;;;41.77;25.50;;;9.80;99.90;;;;;;5094910;28;20213;-48
2023/04/08 08:24:02;;;;;;;46.47;25.83;;;9.90;99.90;;;;;;5095223;28;20175;-44
2023/04/08 08:26:27;;;;;;;46.50;28.13;;;10.00;99.90;;;;;;5094845;28;20205;-44
2023/04/08 08:28:53;;;;;;;45.20;26.77;;;10.00;99.90;;;;;;5094809;28;20261;-43
2023/04/08 08:31:19;;;;;;;41.60;25.83;;;10.00;99.90;;;;;;5094143;28;20285;-44
2023/04/08 08:33:45;;;;;;;46.73;27.33;;;10.10;99.90;;;;;;5094303;28;20179;-44
2023/04/08 08:36:12;;;;;;;43.87;26.63;;;10.10;99.90;;;;;;5094681;28;20198;-45
2023/04/08 08:38:38;;;;;;;42.30;27.10;;;10.20;99.90;;;;;;5094313;28;20294;-46
2023/04/08 08:41:03;;;;;;;42.83;25.33;;;10.20;99.90;;;;;;5094353;28;20282;-44
2023/04/08 08:43:32;;;;;;;43.77;25.70;;;10.30;99.90;;;;;;5094405;28;20182;-48
2023/04/08 08:45:58;;;;;;;44.17;26.37;;;10.30;99.90;;;;;;5094377;28;20183;-48
2023/04/08 08:48:24;;;;;;;40.20;24.43;;;10.30;99.90;;;;;;5094032;28;20187;-47
2023/04/08 08:50:50;;;;;;;41.90;25.57;;;10.40;99.90;;;;;;5094595;28;20228;-45
2023/04/08 08:53:16;;;;;;;43.17;26.57;;;10.40;99.90;;;;;;5093842;28;20194;-47
2023/04/08 08:55:42;;;;;;;42.30;25.97;;;10.60;99.90;;;;;;5093952;28;20262;-44
2023/04/08 08:58:07;;;;;;;44.03;27.53;;;10.70;99.90;;;;;;5093169;28;20205;-47
2023/04/08 09:00:34;;;;;;;42.80;26.30;;;10.70;99.90;;;;;;5094170;28;20179;-47
2023/04/08 09:03:23;;;;;;;41.10;26.67;;;10.70;99.90;;;;;;5094852;28;20202;-44
2023/04/08 09:06:00;;;;;;;43.53;26.80;;;10.70;99.90;;;;;;5094056;28;20167;-46
2023/04/08 09:08:27;;;;;;;46.20;27.70;;;10.70;99.90;;;;;;5094143;28;20182;-46
2023/04/08 09:10:54;;;;;;;45.70;27.53;;;10.70;99.90;;;;;;5093971;28;20190;-47
2023/04/08 09:13:22;;;;;;;42.70;27.90;;;10.80;99.90;;;;;;5094514;28;20190;-44
2023/04/08 09:16:05;;;;;;;49.90;29.37;;;11.00;99.90;;;;;;5093952;28;20332;-47
2023/04/08 09:18:35;;;;;;;44.70;27.67;;;11.20;99.90;;;;;;5093845;28;20230;-47
2023/04/08 09:21:02;;;;;;;44.60;27.40;;;11.40;99.90;;;;;;5094146;28;20250;-43
2023/04/08 09:23:40;;;;;;;45.63;28.97;;;11.70;99.90;;;;;;5094073;28;20258;-45
2023/04/08 09:26:09;;;;;;;46.57;27.23;;;11.80;99.90;;;;;;5094507;28;20232;-45
2023/04/08 09:28:36;;;;;;;45.90;27.90;;;11.90;99.90;;;;;;5094183;28;20232;-46
2023/04/08 09:31:20;;;;;;;44.63;27.90;;;11.70;99.90;;;;;;5093647;28;20182;-43
2023/04/08 09:33:47;;;;;;;48.03;29.50;;;11.90;99.90;;;;;;5093723;28;20171;-46
2023/04/08 09:36:13;;;;;;;47.23;29.23;;;12.00;99.90;;;;;;5093421;28;20171;-46
2023/04/08 09:38:39;;;;;;;46.50;30.03;;;11.90;99.90;;;;;;5093835;28;20202;-46
2023/04/08 09:41:10;;;;;;;45.53;29.67;;;11.90;99.90;;;;;;5093218;28;20206;-44
2023/04/08 09:43:50;;;;;;;45.50;29.73;;;11.90;99.90;;;;;;5094007;28;20619;-47
2023/04/08 09:46:17;;;;;;;41.17;27.60;;;11.90;99.90;;;;;;5094650;28;20162;-47
2023/04/08 09:49:00;;;;;;;42.23;29.23;;;12.00;99.90;;;;;;5094531;28;20185;-44
2023/04/08 09:51:32;;;;;;;38.97;27.40;;;12.10;99.90;;;;;;5093486;28;20206;-45
2023/04/08 09:54:05;;;;;;;43.43;28.70;;;12.20;99.90;;;;;;5093434;28;20194;-46
2023/04/08 09:56:43;;;;;;;40.57;27.27;;;12.20;99.90;;;;;;5093474;28;20344;-46
2023/04/08 09:59:13;;;;;;;39.80;28.33;;;12.30;99.90;;;;;;5093502;28;20191;-44
2023/04/08 10:01:49;;;;;;;39.77;28.70;;;12.40;99.90;;;;;;5097172;28;20578;-44
2023/04/08 10:04:19;;;;;;;41.77;27.97;;;12.60;99.90;;;;;;5097902;28;20501;-45
2023/04/08 10:06:53;;;;;;;43.77;28.43;;;12.60;99.90;;;;;;5097535;28;20657;-44
2023/04/08 10:09:21;;;;;;;39.23;26.60;;;12.50;99.90;;;;;;5097226;28;20676;-45
2023/04/08 10:11:47;;;;;;;39.87;27.33;;;12.50;99.90;;;;;;5095571;28;20227;-46
2023/04/08 10:14:13;;;;;;;38.43;27.13;;;12.50;99.90;;;;;;5097158;28;20182;-46
2023/04/08 10:16:38;;;;;;;36.97;26.43;;;12.50;99.90;;;;;;5096844;28;20210;-46
2023/04/08 10:19:40;;;;;;;36.43;27.10;;;12.50;99.90;;;;;;5097018;28;20209;-46
2023/04/08 10:22:27;;;;;;;36.10;26.87;;;12.50;99.90;;;;;;5097830;28;20194;-45
2023/04/08 10:25:15;;;;;;;38.07;27.73;;;12.40;99.90;;;;;;5096911;28;20171;-45
2023/04/08 10:27:42;;;;;;;39.57;27.27;;;12.40;99.90;;;;;;5097181;28;20196;-46
2023/04/08 10:30:26;;;;;;;36.90;28.73;;;12.30;99.90;;;;;;5096951;28;20290;-45
2023/04/08 10:32:56;;;;;;;37.03;26.47;;;12.30;99.90;;;;;;5095149;28;20202;-46
2023/04/08 10:35:33;;;;;;;34.60;26.57;;;12.40;99.90;;;;;;5096821;28;20190;-47
2023/04/08 10:38:00;;;;;;;35.77;26.60;;;12.30;99.90;;;;;;5096352;28;20194;-47
2023/04/08 10:40:26;;;;;;;39.33;29.83;;;12.40;99.90;;;;;;5096599;28;20270;-45
2023/04/08 10:42:58;;;;;;;39.80;28.93;;;12.40;99.90;;;;;;5096245;28;20282;-45
2023/04/08 10:45:24;;;;;;;37.53;28.43;;;12.30;99.90;;;;;;5096611;28;20253;-45
2023/04/08 10:47:50;;;;;;;38.27;26.67;;;12.30;99.90;;;;;;5096467;28;20209;-44
2023/04/08 10:50:18;;;;;;;36.07;27.50;;;12.30;99.90;;;;;;5096454;28;20548;-46
2023/04/08 10:52:47;;;;;;;37.20;26.40;;;12.30;99.90;;;;;;5096156;28;20211;-45
2023/04/08 10:55:13;;;;;;;37.03;27.70;;;12.40;99.90;;;;;;5094671;28;20202;-45
2023/04/08 10:57:40;;;;;;;36.77;28.33;;;12.30;99.90;;;;;;5095949;28;20179;-48
2023/04/08 11:00:10;;;;;;;35.03;25.90;;;12.40;99.90;;;;;;5095943;28;20185;-47
2023/04/08 11:02:37;;;;;;;34.83;27.57;;;12.30;99.90;;;;;;5095841;28;20245;-48
2023/04/08 11:05:03;;;;;;;34.53;24.50;;;12.40;99.90;;;;;;5096160;28;20253;-44
2023/04/08 11:07:29;;;;;;;31.53;23.67;;;12.30;99.90;;;;;;5096447;28;20179;-44
2023/04/08 11:09:55;;;;;;;31.80;23.10;;;12.40;99.90;;;;;;5095733;28;20543;-46
2023/04/08 11:12:21;;;;;;;28.93;21.60;;;12.40;99.90;;;;;;5095768;28;20614;-46
2023/04/08 11:14:48;;;;;;;28.93;22.57;;;12.40;99.90;;;;;;5095702;28;20186;-45
2023/04/08 11:17:15;;;;;;;30.10;21.63;;;12.50;99.90;;;;;;5096166;28;20567;-46
2023/04/08 11:19:41;;;;;;;34.60;22.27;;;12.50;99.90;;;;;;5095509;28;20301;-45
2023/04/08 11:22:08;;;;;;;23.93;18.60;;;12.50;99.90;;;;;;5095181;28;20674;-45
2023/04/08 11:24:35;;;;;;;21.43;17.30;;;12.40;99.90;;;;;;5096102;28;20628;-52
2023/04/08 11:27:03;;;;;;;23.27;16.13;;;12.40;99.90;;;;;;5095916;28;20178;-49
2023/04/08 11:29:29;;;;;;;19.77;14.80;;;12.20;99.90;;;;;;5095928;28;20658;-52
2023/04/08 11:31:56;;;;;;;22.10;16.30;;;12.20;99.90;;;;;;5095950;28;20244;-44
2023/04/08 11:34:23;;;;;;;23.07;15.90;;;12.30;99.90;;;;;;5095528;28;20179;-47
2023/04/08 11:36:49;;;;;;;16.97;14.10;;;12.20;99.90;;;;;;5095680;28;20258;-44
2023/04/08 11:39:15;;;;;;;20.00;15.20;;;12.20;99.90;;;;;;5095390;28;20211;-45
2023/04/08 11:41:40;;;;;;;20.33;14.77;;;12.10;99.90;;;;;;5095335;28;20278;-45
2023/04/08 11:44:07;;;;;;;16.20;13.97;;;12.00;99.90;;;;;;5095323;28;20201;-44
2023/04/08 11:46:36;;;;;;;17.47;14.37;;;12.10;99.90;;;;;;5095036;28;20175;-45
2023/04/08 11:49:04;;;;;;;20.53;15.57;;;12.10;99.90;;;;;;5095279;28;20228;-47
2023/04/08 11:51:31;;;;;;;17.33;14.23;;;12.10;99.90;;;;;;5094887;28;20738;-45
2023/04/08 11:53:56;;;;;;;16.37;14.00;;;12.20;99.90;;;;;;5094955;28;20186;-46
2023/04/08 11:56:23;;;;;;;18.00;14.67;;;12.10;99.90;;;;;;5094819;28;20255;-48
2023/04/08 11:58:49;;;;;;;19.83;14.40;;;12.20;99.90;;;;;;5094769;28;20201;-46
2023/04/08 12:01:15;;;;;;;17.00;13.70;;;12.20;99.90;;;;;;5094737;28;20566;-46
2023/04/08 12:04:01;;;;;;;22.37;17.37;;;12.20;99.90;;;;;;5094733;28;20167;-46
2023/04/08 12:06:27;;;;;;;15.70;13.17;;;12.30;99.90;;;;;;5094634;28;20189;-47
2023/04/08 12:08:54;;;;;;;15.03;12.13;;;12.40;99.90;;;;;;5094887;28;20516;-46
2023/04/08 12:11:20;;;;;;;17.23;13.47;;;12.30;99.90;;;;;;5094769;28;20203;-46
2023/04/08 12:13:48;;;;;;;16.53;13.90;;;12.20;99.90;;;;;;5094829;28;20266;-43
2023/04/08 12:16:14;;;;;;;16.00;13.30;;;12.10;99.90;;;;;;5094786;28;20183;-46
2023/04/08 12:18:39;;;;;;;17.77;14.17;;;12.10;99.90;;;;;;5094838;28;20535;-46
2023/04/08 12:21:05;;;;;;;16.40;12.73;;;12.20;99.90;;;;;;5094328;28;20715;-44
2023/04/08 12:23:31;;;;;;;17.50;12.70;;;12.20;99.90;;;;;;5094483;28;20181;-46
2023/04/08 12:25:57;;;;;;;14.80;12.00;;;12.20;99.90;;;;;;5094385;28;20171;-47
2023/04/08 12:28:22;;;;;;;16.67;12.30;;;12.30;99.90;;;;;;5094508;28;20167;-45
2023/04/08 12:30:48;;;;;;;17.17;13.17;;;12.40;99.90;;;;;;5094221;28;20189;-46
2023/04/08 12:33:13;;;;;;;16.73;13.33;;;12.50;99.90;;;;;;5094210;28;20175;-46